createdAt,value
2019-01-21T00:00:18.442Z,-5.60
2019-01-21T00:02:47.343Z,-5.70
2019-01-21T00:05:16.427Z,-5.70
2019-01-21T00:07:45.744Z,-5.60
2019-01-21T00:10:15.128Z,-5.70
2019-01-21T00:12:43.870Z,-5.70
2019-01-21T00:15:13.582Z,-5.60
2019-01-21T00:17:42.487Z,-5.60
2019-01-21T00:20:11.427Z,-5.60
2019-01-21T00:22:40.476Z,-5.60
2019-01-21T00:25:09.599Z,-5.60
2019-01-21T00:27:38.570Z,-5.60
2019-01-21T00:30:07.723Z,-5.60
2019-01-21T00:32:36.658Z,-5.70
2019-01-21T00:35:06.037Z,-5.70
2019-01-21T00:37:35.011Z,-5.70
2019-01-21T00:40:04.588Z,-5.70
2019-01-21T00:42:33.539Z,-5.70
2019-01-21T00:45:02.616Z,-5.70
2019-01-21T00:47:31.515Z,-5.80
2019-01-21T00:50:00.430Z,-5.80
2019-01-21T00:52:29.221Z,-5.80
2019-01-21T00:54:58.342Z,-5.80
2019-01-21T00:57:27.412Z,-5.80
2019-01-21T00:59:56.420Z,-5.90
2019-01-21T01:02:25.497Z,-5.90
2019-01-21T01:04:54.758Z,-5.90
2019-01-21T01:07:23.564Z,-5.90
2019-01-21T01:09:52.315Z,-5.90
2019-01-21T01:12:21.071Z,-5.90
2019-01-21T01:14:49.877Z,-6.00
2019-01-21T01:17:19.236Z,-5.90
2019-01-21T01:19:48.180Z,-5.80
2019-01-21T01:22:17.131Z,-5.90
2019-01-21T01:24:46.336Z,-5.90
2019-01-21T01:27:15.261Z,-6.00
2019-01-21T01:29:44.138Z,-6.10
2019-01-21T01:32:13.218Z,-6.10
2019-01-21T01:34:41.993Z,-6.20
2019-01-21T01:37:10.932Z,-6.10
2019-01-21T01:39:40.361Z,-6.10
2019-01-21T01:42:09.814Z,-6.20
2019-01-21T01:44:38.555Z,-6.20
2019-01-21T01:47:08.165Z,-6.20
2019-01-21T01:49:37.706Z,-6.20
2019-01-21T01:52:06.604Z,-6.20
2019-01-21T01:54:35.656Z,-6.20
2019-01-21T01:57:05.111Z,-6.20
2019-01-21T01:59:34.223Z,-6.20
2019-01-21T02:02:03.219Z,-6.20
2019-01-21T02:04:32.218Z,-6.30
2019-01-21T02:07:01.139Z,-6.30
2019-01-21T02:09:30.178Z,-6.20
2019-01-21T02:11:59.389Z,-6.20
2019-01-21T02:14:28.148Z,-6.20
2019-01-21T02:16:57.358Z,-6.20
2019-01-21T02:19:29.627Z,-6.20
2019-01-21T02:22:00.214Z,-6.30
2019-01-21T02:24:36.126Z,-6.40
2019-01-21T02:27:08.226Z,-6.50
2019-01-21T02:30:26.789Z,-6.60
2019-01-21T02:33:38.661Z,-6.60
2019-01-21T02:36:54.851Z,-6.60
2019-01-21T02:39:51.222Z,-6.70
2019-01-21T02:42:27.069Z,-6.70
2019-01-21T02:45:06.858Z,-6.60
2019-01-21T02:47:51.400Z,-6.60
2019-01-21T02:51:19.431Z,-6.70
2019-01-21T02:54:36.263Z,-6.70
2019-01-21T02:57:24.593Z,-6.70
2019-01-21T03:00:47.320Z,-6.60
2019-01-21T03:03:48.830Z,-6.60
2019-01-21T03:06:56.240Z,-6.70
2019-01-21T03:10:02.881Z,-6.70
2019-01-21T03:13:12.380Z,-6.60
2019-01-21T03:16:43.103Z,-6.70
2019-01-21T03:20:01.508Z,-6.70
2019-01-21T03:23:33.158Z,-6.60
2019-01-21T03:26:26.072Z,-6.70
2019-01-21T03:29:32.407Z,-6.70
2019-01-21T03:32:42.383Z,-6.70
2019-01-21T03:35:34.093Z,-6.70
2019-01-21T03:38:26.570Z,-6.50
2019-01-21T03:41:21.397Z,-6.50
2019-01-21T03:44:47.267Z,-6.60
2019-01-21T03:47:36.984Z,-6.70
2019-01-21T03:50:48.670Z,-6.80
2019-01-21T03:53:26.109Z,-6.80
2019-01-21T03:55:59.654Z,-6.80
2019-01-21T03:58:55.508Z,-6.80
2019-01-21T04:02:13.555Z,-6.80
2019-01-21T04:05:12.141Z,-6.80
2019-01-21T04:07:58.269Z,-6.80
2019-01-21T04:11:11.711Z,-6.90
2019-01-21T04:14:14.986Z,-6.90
2019-01-21T04:17:28.318Z,-7.00
2019-01-21T04:20:26.947Z,-7.00
2019-01-21T04:23:55.998Z,-6.90
2019-01-21T04:26:57.841Z,-7.00
2019-01-21T04:30:19.162Z,-6.90
2019-01-21T04:33:32.488Z,-6.80
2019-01-21T04:36:43.956Z,-6.80
2019-01-21T04:39:46.592Z,-6.80
2019-01-21T04:42:52.532Z,-6.80
2019-01-21T04:45:41.436Z,-6.80
2019-01-21T04:48:41.045Z,-6.80
2019-01-21T04:51:58.096Z,-6.80
2019-01-21T04:55:38.943Z,-6.90
2019-01-21T04:58:44.417Z,-7.00
2019-01-21T05:01:46.508Z,-7.10
2019-01-21T05:05:05.019Z,-7.20
2019-01-21T05:08:04.840Z,-7.20
2019-01-21T05:11:15.071Z,-7.20
2019-01-21T05:14:21.289Z,-7.30
2019-01-21T05:17:27.424Z,-7.30
2019-01-21T05:20:42.469Z,-7.40
2019-01-21T05:23:58.207Z,-7.40
2019-01-21T05:26:40.127Z,-7.40
2019-01-21T05:29:27.219Z,-7.40
2019-01-21T05:32:26.381Z,-7.40
2019-01-21T05:35:31.891Z,-7.40
2019-01-21T05:38:45.364Z,-7.40
2019-01-21T05:42:05.009Z,-7.40
2019-01-21T05:44:52.506Z,-7.40
2019-01-21T05:48:17.774Z,-7.50
2019-01-21T05:51:30.103Z,-7.50
2019-01-21T05:54:27.508Z,-7.50
2019-01-21T05:57:33.598Z,-7.50
2019-01-21T06:00:24.453Z,-7.50
2019-01-21T06:03:38.946Z,-7.50
2019-01-21T06:06:36.883Z,-7.60
2019-01-21T06:09:33.340Z,-7.50
2019-01-21T06:12:58.930Z,-7.60
2019-01-21T06:15:46.954Z,-7.60
2019-01-21T06:18:39.451Z,-7.50
2019-01-21T06:21:46.961Z,-7.60
2019-01-21T06:24:48.635Z,-7.60
2019-01-21T06:27:43.072Z,-7.60
2019-01-21T06:30:48.139Z,-7.60
2019-01-21T06:34:01.803Z,-7.60
2019-01-21T06:37:09.847Z,-7.80
2019-01-21T06:40:00.697Z,-7.80
2019-01-21T06:43:06.570Z,-7.70
2019-01-21T06:46:22.825Z,-7.70
2019-01-21T06:49:30.047Z,-7.80
2019-01-21T06:52:26.909Z,-7.90
2019-01-21T06:55:22.010Z,-7.70
2019-01-21T06:58:25.100Z,-7.70
2019-01-21T07:01:35.206Z,-7.80
2019-01-21T07:04:17.062Z,-7.70
2019-01-21T07:07:23.007Z,-7.70
2019-01-21T07:10:16.103Z,-7.70
2019-01-21T07:13:29.336Z,-7.60
2019-01-21T07:16:20.416Z,-7.60
2019-01-21T07:19:29.388Z,-7.50
2019-01-21T07:22:29.116Z,-7.50
2019-01-21T07:25:31.734Z,-7.50
2019-01-21T07:28:47.782Z,-7.50
2019-01-21T07:32:04.452Z,-7.40
2019-01-21T07:35:20.728Z,-7.30
2019-01-21T07:38:17.994Z,-7.20
2019-01-21T07:41:05.434Z,-7.10
2019-01-21T07:43:57.488Z,-7.00
2019-01-21T07:47:23.033Z,-7.00
2019-01-21T07:50:37.464Z,-6.90
2019-01-21T07:53:36.553Z,-6.90
2019-01-21T07:56:55.240Z,-6.80
2019-01-21T08:00:09.608Z,-6.80
2019-01-21T08:03:11.275Z,-6.80
2019-01-21T08:06:08.588Z,-6.70
2019-01-21T08:08:45.274Z,-6.60
2019-01-21T08:11:46.684Z,-6.40
2019-01-21T08:14:33.982Z,-6.50
2019-01-21T08:17:28.256Z,-6.40
2019-01-21T08:20:25.747Z,-6.30
2019-01-21T08:23:24.965Z,-6.20
2019-01-21T08:26:16.351Z,-6.20
2019-01-21T08:28:59.353Z,-5.90
2019-01-21T08:31:35.393Z,-5.60
2019-01-21T08:34:24.948Z,-5.30
2019-01-21T08:37:41.146Z,-5.10
2019-01-21T08:40:23.909Z,-5.00
2019-01-21T08:43:25.708Z,-4.70
2019-01-21T08:46:29.945Z,-3.70
2019-01-21T08:49:36.187Z,-2.90
2019-01-21T08:52:32.664Z,-1.90
2019-01-21T08:55:25.441Z,-1.60
2019-01-21T08:58:26.630Z,-0.80
2019-01-21T09:01:27.088Z,-0.70
2019-01-21T09:04:17.127Z,-0.90
2019-01-21T09:07:13.074Z,-1.40
2019-01-21T09:10:17.151Z,-1.50
2019-01-21T09:13:13.566Z,-0.90
2019-01-21T09:15:58.730Z,-0.10
2019-01-21T09:18:48.811Z,0.30
2019-01-21T09:21:45.548Z,0.90
2019-01-21T09:24:53.575Z,1.20
2019-01-21T09:27:45.579Z,1.10
2019-01-21T09:31:00.386Z,-0.30
2019-01-21T09:33:57.441Z,0.30
2019-01-21T09:36:54.572Z,1.20
2019-01-21T09:39:50.708Z,0.70
2019-01-21T09:42:49.986Z,1.50
2019-01-21T09:45:48.602Z,1.00
2019-01-21T09:48:16.244Z,0.80
2019-01-21T09:50:46.494Z,1.50
2019-01-21T09:53:15.595Z,1.00
2019-01-21T09:55:49.271Z,1.20
2019-01-21T09:58:23.612Z,0.80
2019-01-21T10:00:52.531Z,1.40
2019-01-21T10:03:22.540Z,2.00
2019-01-21T10:05:56.480Z,1.30
2019-01-21T10:08:55.247Z,1.30
2019-01-21T10:11:47.214Z,1.70
2019-01-21T10:14:46.387Z,1.10
2019-01-21T10:17:47.234Z,0.70
2019-01-21T10:20:33.795Z,1.60
2019-01-21T10:23:41.802Z,2.00
2019-01-21T10:27:03.225Z,1.40
2019-01-21T10:30:04.153Z,1.10
2019-01-21T10:33:05.661Z,0.80
2019-01-21T10:36:04.636Z,0.70
2019-01-21T10:39:07.334Z,0.50
2019-01-21T10:41:44.454Z,0.90
2019-01-21T10:44:50.786Z,1.80
2019-01-21T10:47:34.663Z,2.70
2019-01-21T10:50:42.306Z,3.00
2019-01-21T10:53:51.198Z,3.90
2019-01-21T10:56:52.453Z,2.70
2019-01-21T10:59:50.317Z,2.60
2019-01-21T11:03:12.703Z,3.10
2019-01-21T11:06:20.041Z,3.60
2019-01-21T11:09:29.448Z,2.80
2019-01-21T11:12:51.864Z,4.20
2019-01-21T11:15:51.338Z,3.80
2019-01-21T11:18:40.802Z,3.30
2019-01-21T11:21:33.547Z,4.00
2019-01-21T11:24:40.075Z,3.30
2019-01-21T11:27:56.080Z,3.20
2019-01-21T11:30:50.181Z,4.20
2019-01-21T11:34:12.555Z,4.10
2019-01-21T11:36:57.660Z,4.00
2019-01-21T11:40:05.751Z,3.20
2019-01-21T11:43:01.800Z,3.70
2019-01-21T11:46:23.955Z,4.60
2019-01-21T11:49:05.991Z,4.90
2019-01-21T11:52:06.603Z,4.90
2019-01-21T11:54:51.842Z,4.70
2019-01-21T11:57:45.283Z,5.30
2019-01-21T12:00:33.734Z,5.50
2019-01-21T12:03:16.305Z,3.90
2019-01-21T12:06:16.634Z,4.90
2019-01-21T12:09:38.847Z,4.50
2019-01-21T12:12:31.187Z,4.70
2019-01-21T12:15:38.258Z,5.00
2019-01-21T12:18:36.888Z,5.80
2019-01-21T12:21:35.438Z,4.80
2019-01-21T12:24:26.798Z,5.10
2019-01-21T12:27:29.272Z,4.70
2019-01-21T12:30:35.182Z,5.10
2019-01-21T12:33:29.277Z,4.80
2019-01-21T12:36:03.420Z,4.80
2019-01-21T12:39:32.968Z,5.50
2019-01-21T12:42:28.724Z,6.10
2019-01-21T12:45:43.178Z,6.30
2019-01-21T12:48:34.400Z,6.40
2019-01-21T12:51:47.955Z,6.60
2019-01-21T12:55:16.239Z,6.50
2019-01-21T12:58:07.864Z,6.40
2019-01-21T13:01:09.842Z,6.40
2019-01-21T13:03:56.245Z,6.00
2019-01-21T13:06:50.794Z,6.00
2019-01-21T13:09:52.672Z,5.80
2019-01-21T13:13:03.180Z,5.40
2019-01-21T13:16:04.188Z,5.50
2019-01-21T13:19:04.495Z,5.80
2019-01-21T13:21:58.636Z,5.60
2019-01-21T13:25:14.928Z,5.70
2019-01-21T13:28:04.894Z,6.20
2019-01-21T13:31:33.524Z,6.50
2019-01-21T13:34:31.401Z,5.40
2019-01-21T13:37:12.167Z,5.20
2019-01-21T13:40:13.355Z,5.30
2019-01-21T13:42:55.809Z,5.50
2019-01-21T13:45:47.771Z,6.00
2019-01-21T13:49:02.702Z,6.10
2019-01-21T13:52:15.617Z,6.30
2019-01-21T13:55:11.098Z,6.00
2019-01-21T13:58:30.506Z,5.60
2019-01-21T14:01:34.130Z,5.30
2019-01-21T14:04:30.342Z,4.90
2019-01-21T14:07:37.830Z,4.20
2019-01-21T14:10:28.677Z,3.60
2019-01-21T14:13:52.114Z,3.30
2019-01-21T14:16:55.204Z,2.20
2019-01-21T14:19:45.671Z,1.70
2019-01-21T14:23:07.572Z,1.60
2019-01-21T14:26:32.455Z,1.20
2019-01-21T14:29:11.668Z,0.60
2019-01-21T14:32:20.953Z,0.30
2019-01-21T14:35:05.182Z,0.20
2019-01-21T14:38:21.390Z,0.10
2019-01-21T14:41:32.977Z,0.00
2019-01-21T14:44:51.351Z,0.30
2019-01-21T14:47:57.356Z,0.20
2019-01-21T14:51:03.615Z,-0.10
2019-01-21T14:54:03.177Z,-0.20
2019-01-21T14:57:32.073Z,-0.20
2019-01-21T15:00:32.494Z,-0.40
2019-01-21T15:03:28.402Z,-0.40
2019-01-21T15:06:24.622Z,-0.50
2019-01-21T15:09:24.510Z,-0.50
2019-01-21T15:12:17.477Z,-0.40
2019-01-21T15:15:29.627Z,-0.30
2019-01-21T15:18:42.101Z,-0.40
2019-01-21T15:21:47.013Z,-0.50
2019-01-21T15:25:03.132Z,-0.60
2019-01-21T15:28:06.762Z,-0.90
2019-01-21T15:31:16.280Z,-1.00
2019-01-21T15:34:20.973Z,-1.10
2019-01-21T15:37:37.290Z,-1.20
2019-01-21T15:40:41.467Z,-1.20
2019-01-21T15:43:37.178Z,-1.30
2019-01-21T15:46:38.378Z,-1.40
2019-01-21T15:49:21.118Z,-1.30
2019-01-21T15:52:09.112Z,-1.40
2019-01-21T15:55:08.096Z,-1.40
2019-01-21T15:57:45.129Z,-1.50
2019-01-21T16:00:49.049Z,-1.60
2019-01-21T16:03:43.085Z,-1.50
2019-01-21T16:06:46.237Z,-1.60
2019-01-21T16:09:39.679Z,-1.60
2019-01-21T16:12:49.566Z,-1.50
2019-01-21T16:15:57.865Z,-1.50
2019-01-21T16:18:35.629Z,-1.60
2019-01-21T16:21:31.613Z,-1.50
2019-01-21T16:24:16.828Z,-1.70
2019-01-21T16:27:11.271Z,-1.80
2019-01-21T16:29:48.295Z,-1.90
2019-01-21T16:33:08.035Z,-1.90
2019-01-21T16:36:09.177Z,-1.80
2019-01-21T16:38:45.572Z,-1.70
2019-01-21T16:41:52.349Z,-1.80
2019-01-21T16:44:21.689Z,-1.90
2019-01-21T16:46:50.965Z,-2.00
2019-01-21T16:49:19.837Z,-2.00
2019-01-21T16:51:48.804Z,-2.20
2019-01-21T16:54:17.657Z,-2.40
2019-01-21T16:56:46.699Z,-2.50
2019-01-21T16:59:15.594Z,-2.50
2019-01-21T17:01:44.331Z,-2.50
2019-01-21T17:04:13.373Z,-2.60
2019-01-21T17:06:42.382Z,-2.60
2019-01-21T17:09:11.788Z,-2.60
2019-01-21T17:11:40.615Z,-2.50
2019-01-21T17:14:11.682Z,-2.60
2019-01-21T17:16:40.620Z,-2.70
2019-01-21T17:19:09.683Z,-2.60
2019-01-21T17:21:39.163Z,-2.40
2019-01-21T17:24:08.105Z,-2.50
2019-01-21T17:26:37.167Z,-2.70
2019-01-21T17:29:06.212Z,-2.40
2019-01-21T17:31:35.112Z,-2.40
2019-01-21T17:34:04.331Z,-2.40
2019-01-21T17:36:33.504Z,-2.40
2019-01-21T17:39:02.515Z,-2.40
2019-01-21T17:41:31.471Z,-2.60
2019-01-21T17:44:01.009Z,-2.90
2019-01-21T17:46:29.995Z,-3.00
2019-01-21T17:48:58.928Z,-3.10
2019-01-21T17:51:33.530Z,-3.10
2019-01-21T17:53:58.476Z,-3.10
2019-01-21T17:56:27.672Z,-3.10
2019-01-21T17:58:57.498Z,-3.00
2019-01-21T18:01:26.408Z,-3.00
2019-01-21T18:03:55.617Z,-2.90
2019-01-21T18:06:24.587Z,-2.90
2019-01-21T18:08:53.718Z,-3.00
2019-01-21T18:11:22.526Z,-3.00
2019-01-21T18:13:51.482Z,-3.10
2019-01-21T18:16:21.285Z,-3.10
2019-01-21T18:18:50.966Z,-3.20
2019-01-21T18:21:20.006Z,-3.20
2019-01-21T18:24:09.298Z,-3.30
2019-01-21T18:26:39.818Z,-3.30
2019-01-21T18:29:09.203Z,-3.20
2019-01-21T18:31:39.520Z,-3.30
2019-01-21T18:34:09.107Z,-3.30
2019-01-21T18:36:38.070Z,-3.40
2019-01-21T18:39:11.766Z,-3.40
2019-01-21T18:41:40.706Z,-3.50
2019-01-21T18:44:09.613Z,-3.70
2019-01-21T18:46:39.316Z,-3.80
2019-01-21T18:49:08.820Z,-3.90
2019-01-21T18:51:37.894Z,-3.80
2019-01-21T18:54:07.026Z,-3.70
2019-01-21T18:56:35.917Z,-3.70
2019-01-21T18:59:05.224Z,-3.70
2019-01-21T19:01:34.048Z,-3.60
2019-01-21T19:04:03.009Z,-3.70
2019-01-21T19:06:31.943Z,-3.80
2019-01-21T19:09:01.031Z,-3.90
2019-01-21T19:11:30.098Z,-4.00
2019-01-21T19:13:59.779Z,-4.00
2019-01-21T19:16:28.655Z,-4.10
2019-01-21T19:18:57.893Z,-4.10
2019-01-21T19:21:27.068Z,-4.10
2019-01-21T19:23:55.987Z,-4.10
2019-01-21T19:26:26.390Z,-4.00
2019-01-21T19:28:56.392Z,-4.00
2019-01-21T19:31:25.260Z,-4.10
2019-01-21T19:33:54.659Z,-4.30
2019-01-21T19:36:23.839Z,-4.30
2019-01-21T19:38:52.759Z,-4.50
2019-01-21T19:41:21.918Z,-4.40
2019-01-21T19:43:50.895Z,-4.50
2019-01-21T19:46:21.002Z,-4.40
2019-01-21T19:48:51.284Z,-4.40
2019-01-21T19:51:20.268Z,-4.50
2019-01-21T19:53:49.163Z,-4.60
2019-01-21T19:56:18.206Z,-4.70
2019-01-21T19:58:47.054Z,-4.70
2019-01-21T20:01:15.886Z,-4.60
2019-01-21T20:03:44.863Z,-4.60
2019-01-21T20:06:14.123Z,-4.60
2019-01-21T20:08:42.894Z,-4.60
2019-01-21T20:11:11.810Z,-4.60
2019-01-21T20:13:41.020Z,-4.60
2019-01-21T20:16:10.408Z,-4.60
2019-01-21T20:18:39.610Z,-4.60
2019-01-21T20:21:08.387Z,-4.60
2019-01-21T20:23:37.612Z,-4.60
2019-01-21T20:26:06.385Z,-4.60
2019-01-21T20:28:35.300Z,-4.60
2019-01-21T20:31:04.403Z,-4.70
2019-01-21T20:33:33.675Z,-4.70
2019-01-21T20:36:02.532Z,-4.60
2019-01-21T20:38:31.382Z,-4.60
2019-01-21T20:41:00.441Z,-4.60
2019-01-21T20:43:29.679Z,-4.70
2019-01-21T20:45:59.598Z,-4.60
2019-01-21T20:48:28.483Z,-4.70
2019-01-21T20:50:57.511Z,-4.70
2019-01-21T20:53:26.331Z,-4.80
2019-01-21T20:55:55.184Z,-4.80
2019-01-21T20:58:24.212Z,-4.80
2019-01-21T21:00:53.385Z,-4.80
2019-01-21T21:03:23.119Z,-4.80
2019-01-21T21:05:55.343Z,-4.80
2019-01-21T21:08:25.786Z,-4.80
2019-01-21T21:10:56.800Z,-4.70
2019-01-21T21:13:26.290Z,-4.70
2019-01-21T21:15:55.819Z,-4.70
2019-01-21T21:18:25.239Z,-4.70
2019-01-21T21:20:54.692Z,-4.60
2019-01-21T21:23:26.253Z,-4.70
2019-01-21T21:25:56.142Z,-4.70
2019-01-21T21:28:25.770Z,-4.70
2019-01-21T21:30:55.320Z,-4.70
2019-01-21T21:33:24.884Z,-4.70
2019-01-21T21:35:54.487Z,-4.80
2019-01-21T21:38:24.732Z,-4.80
2019-01-21T21:40:54.384Z,-4.70
2019-01-21T21:43:24.073Z,-4.80
2019-01-21T21:45:53.994Z,-4.80
2019-01-21T21:48:23.495Z,-4.90
2019-01-21T21:50:53.639Z,-5.00
2019-01-21T21:53:23.127Z,-5.00
2019-01-21T21:55:52.804Z,-5.10
2019-01-21T21:58:22.561Z,-5.00
2019-01-21T22:00:52.103Z,-5.00
2019-01-21T22:03:21.786Z,-5.00
2019-01-21T22:05:51.838Z,-5.00
2019-01-21T22:08:21.495Z,-5.10
2019-01-21T22:10:51.542Z,-5.10
2019-01-21T22:13:21.537Z,-5.00
2019-01-21T22:15:51.100Z,-5.10
2019-01-21T22:18:20.637Z,-5.10
2019-01-21T22:20:51.023Z,-5.10
2019-01-21T22:23:21.168Z,-5.10
2019-01-21T22:25:50.418Z,-5.10
2019-01-21T22:28:20.863Z,-5.10
2019-01-21T22:30:49.796Z,-5.10
2019-01-21T22:33:18.759Z,-5.10
2019-01-21T22:35:47.775Z,-5.20
2019-01-21T22:38:16.835Z,-5.20
2019-01-21T22:40:45.626Z,-5.20
2019-01-21T22:43:15.594Z,-5.20
2019-01-21T22:45:49.333Z,-5.30
2019-01-21T22:48:18.758Z,-5.30
2019-01-21T22:50:48.119Z,-5.30
2019-01-21T22:53:17.055Z,-5.30
2019-01-21T22:55:46.122Z,-5.40
2019-01-21T22:58:15.190Z,-5.40
2019-01-21T23:01:14.260Z,-5.50
2019-01-21T23:03:43.438Z,-5.50
2019-01-21T23:06:12.339Z,-5.50
2019-01-21T23:08:41.589Z,-5.50
2019-01-21T23:11:10.536Z,-5.50
2019-01-21T23:13:39.783Z,-5.50
2019-01-21T23:16:08.669Z,-5.50
2019-01-21T23:18:38.020Z,-5.50
2019-01-21T23:21:06.987Z,-5.60
2019-01-21T23:23:36.077Z,-5.60
2019-01-21T23:26:05.094Z,-5.60
2019-01-21T23:28:33.974Z,-5.60
2019-01-21T23:31:03.318Z,-5.70
2019-01-21T23:33:32.086Z,-5.70
2019-01-21T23:36:01.207Z,-5.70
2019-01-21T23:38:30.096Z,-5.80
2019-01-21T23:40:59.100Z,-5.80
2019-01-21T23:43:28.192Z,-5.80
2019-01-21T23:45:57.158Z,-5.80
2019-01-21T23:48:26.206Z,-5.80
2019-01-21T23:50:56.242Z,-5.80
2019-01-21T23:53:25.110Z,-5.80
2019-01-21T23:55:53.950Z,-5.80
2019-01-21T23:58:23.149Z,-5.80
